createdAt,value
2023-04-05T00:01:29.773Z,6.00
2023-04-05T00:03:59.476Z,6.00
2023-04-05T00:06:29.285Z,6.00
2023-04-05T00:08:57.646Z,6.00
2023-04-05T00:11:26.461Z,6.10
2023-04-05T00:13:54.836Z,6.00
2023-04-05T00:16:23.437Z,6.00
2023-04-05T00:18:53.765Z,6.00
2023-04-05T00:21:22.966Z,6.00
2023-04-05T00:23:51.723Z,6.00
2023-04-05T00:26:20.509Z,6.10
2023-04-05T00:28:49.643Z,6.10
2023-04-05T00:31:21.024Z,6.00
2023-04-05T00:33:49.250Z,5.90
2023-04-05T00:36:21.135Z,5.90
2023-04-05T00:38:50.763Z,5.80
2023-04-05T00:41:19.055Z,5.80
2023-04-05T00:43:47.969Z,5.80
2023-04-05T00:46:16.977Z,5.80
2023-04-05T00:48:45.724Z,5.70
2023-04-05T00:51:14.057Z,5.80
2023-04-05T00:53:44.989Z,5.70
2023-04-05T00:56:14.116Z,5.80
2023-04-05T00:58:42.988Z,5.50
2023-04-05T01:01:16.593Z,5.50
2023-04-05T01:03:50.235Z,5.40
2023-04-05T01:06:28.133Z,5.40
2023-04-05T01:09:07.996Z,5.40
2023-04-05T01:11:39.225Z,5.40
2023-04-05T01:14:07.611Z,5.30
2023-04-05T01:16:35.641Z,5.30
2023-04-05T01:19:04.538Z,5.30
2023-04-05T01:22:15.223Z,5.30
2023-04-05T01:25:21.790Z,5.30
2023-04-05T01:28:24.516Z,5.20
2023-04-05T01:31:00.778Z,5.20
2023-04-05T01:33:39.830Z,5.20
2023-04-05T01:36:16.517Z,5.10
2023-04-05T01:38:47.578Z,5.10
2023-04-05T01:41:16.200Z,5.20
2023-04-05T01:43:44.466Z,5.20
2023-04-05T01:46:14.261Z,5.20
2023-04-05T01:48:45.105Z,5.20
2023-04-05T01:51:15.239Z,5.20
2023-04-05T01:53:43.436Z,5.00
2023-04-05T01:56:11.537Z,5.00
2023-04-05T01:58:39.856Z,4.90
2023-04-05T02:01:08.055Z,4.90
2023-04-05T02:03:37.747Z,4.80
2023-04-05T02:06:06.716Z,4.90
2023-04-05T02:08:35.064Z,4.80
2023-04-05T02:11:03.528Z,4.80
2023-04-05T02:13:31.892Z,4.80
2023-04-05T02:15:59.979Z,4.70
2023-04-05T02:18:32.064Z,4.70
2023-04-05T02:21:05.698Z,4.80
2023-04-05T02:23:34.398Z,4.70
2023-04-05T02:26:14.515Z,4.70
2023-04-05T02:28:42.865Z,4.60
2023-04-05T02:31:12.052Z,4.60
2023-04-05T02:33:41.281Z,4.60
2023-04-05T02:36:13.363Z,4.60
2023-04-05T02:38:41.997Z,4.60
2023-04-05T02:41:11.796Z,4.60
2023-04-05T02:43:40.078Z,4.60
2023-04-05T02:46:08.427Z,4.60
2023-04-05T02:48:36.803Z,4.50
2023-04-05T02:51:05.418Z,4.50
2023-04-05T02:53:34.913Z,4.50
2023-04-05T02:56:06.774Z,4.40
2023-04-05T02:58:35.021Z,4.40
2023-04-05T03:01:07.470Z,4.40
2023-04-05T03:03:35.866Z,4.40
2023-04-05T03:06:10.412Z,4.50
2023-04-05T03:08:44.095Z,4.50
2023-04-05T03:11:12.787Z,4.50
2023-04-05T03:13:42.869Z,4.50
2023-04-05T03:16:10.921Z,4.50
2023-04-05T03:18:42.058Z,4.50
2023-04-05T03:21:12.433Z,4.50
2023-04-05T03:23:42.987Z,4.50
2023-04-05T03:26:11.365Z,4.40
2023-04-05T03:28:45.207Z,4.50
2023-04-05T03:31:14.187Z,4.40
2023-04-05T03:33:43.291Z,4.40
2023-04-05T03:36:11.545Z,4.40
2023-04-05T03:38:42.641Z,4.30
2023-04-05T03:41:12.351Z,4.30
2023-04-05T03:43:40.789Z,4.30
2023-04-05T03:46:08.963Z,4.20
2023-04-05T03:48:37.609Z,4.20
2023-04-05T03:51:06.300Z,4.20
2023-04-05T03:53:34.463Z,4.30
2023-04-05T03:56:04.093Z,4.30
2023-04-05T03:58:32.188Z,4.30
2023-04-05T04:01:00.135Z,4.20
2023-04-05T04:03:28.981Z,4.30
2023-04-05T04:06:01.990Z,4.20
2023-04-05T04:08:33.855Z,4.10
2023-04-05T04:11:06.536Z,4.00
2023-04-05T04:13:34.946Z,3.90
2023-04-05T04:16:04.088Z,3.90
2023-04-05T04:18:34.056Z,3.80
2023-04-05T04:21:07.088Z,3.90
2023-04-05T04:23:38.591Z,3.90
2023-04-05T04:26:08.313Z,3.90
2023-04-05T04:28:39.257Z,3.90
2023-04-05T04:31:09.445Z,4.00
2023-04-05T04:33:38.169Z,3.80
2023-04-05T04:36:13.685Z,3.80
2023-04-05T04:38:46.762Z,3.80
2023-04-05T04:41:17.724Z,3.80
2023-04-05T04:43:46.114Z,3.80
2023-04-05T04:46:15.875Z,3.80
2023-04-05T04:48:44.219Z,3.70
2023-04-05T04:51:12.412Z,3.70
2023-04-05T04:53:50.868Z,3.70
2023-04-05T04:56:21.237Z,3.70
2023-04-05T04:58:56.288Z,3.70
2023-04-05T05:01:25.349Z,3.70
2023-04-05T05:03:54.849Z,3.70
2023-04-05T05:06:23.202Z,3.80
2023-04-05T05:08:51.698Z,3.60
2023-04-05T05:11:21.415Z,3.80
2023-04-05T05:13:52.653Z,3.80
2023-04-05T05:16:22.726Z,3.80
2023-04-05T05:18:52.416Z,3.70
2023-04-05T05:21:20.910Z,3.80
2023-04-05T05:23:49.252Z,3.80
2023-04-05T05:26:17.613Z,3.80
2023-04-05T05:28:49.206Z,3.70
2023-04-05T05:31:18.492Z,3.70
2023-04-05T05:33:49.698Z,3.70
2023-04-05T05:36:20.794Z,3.60
2023-04-05T05:38:49.154Z,3.60
2023-04-05T05:41:19.898Z,3.60
2023-04-05T05:43:49.630Z,3.60
2023-04-05T05:46:21.158Z,3.60
2023-04-05T05:48:49.616Z,3.60
2023-04-05T05:51:18.307Z,3.50
2023-04-05T05:53:47.333Z,3.50
2023-04-05T05:56:15.583Z,3.60
2023-04-05T05:58:43.912Z,3.70
2023-04-05T06:01:14.567Z,3.70
2023-04-05T06:03:42.899Z,3.80
2023-04-05T06:06:11.579Z,3.80
2023-04-05T06:08:40.056Z,3.90
2023-04-05T06:11:08.173Z,4.00
2023-04-05T06:13:38.082Z,4.00
2023-04-05T06:16:07.481Z,4.20
2023-04-05T06:18:37.215Z,4.20
2023-04-05T06:21:05.650Z,4.20
2023-04-05T06:23:33.959Z,4.20
2023-04-05T06:26:02.576Z,4.20
2023-04-05T06:28:31.410Z,4.30
2023-04-05T06:31:00.762Z,4.30
2023-04-05T06:33:32.043Z,4.40
2023-04-05T06:36:01.891Z,4.50
2023-04-05T06:38:30.390Z,4.60
2023-04-05T06:40:59.058Z,4.90
2023-04-05T06:43:27.933Z,4.80
2023-04-05T06:46:00.014Z,4.90
2023-04-05T06:48:31.350Z,5.00
2023-04-05T06:51:02.550Z,5.20
2023-04-05T06:53:32.369Z,5.20
2023-04-05T06:56:01.538Z,5.30
2023-04-05T06:58:30.608Z,5.30
2023-04-05T07:00:59.303Z,5.40
2023-04-05T07:03:27.589Z,5.50
2023-04-05T07:05:59.213Z,5.60
2023-04-05T07:08:29.604Z,5.60
2023-04-05T07:10:57.883Z,5.70
2023-04-05T07:13:31.231Z,5.80
2023-04-05T07:16:08.313Z,5.80
2023-04-05T07:18:36.686Z,5.90
2023-04-05T07:21:07.142Z,5.90
2023-04-05T07:23:36.835Z,6.00
2023-04-05T07:26:06.206Z,6.10
2023-04-05T07:28:35.916Z,6.10
2023-04-05T07:31:05.088Z,6.10
2023-04-05T07:33:35.158Z,6.20
2023-04-05T07:36:08.207Z,6.30
2023-04-05T07:38:38.015Z,6.30
2023-04-05T07:41:09.193Z,6.40
2023-04-05T07:43:37.796Z,6.50
2023-04-05T07:46:09.012Z,6.50
2023-04-05T07:48:39.464Z,6.60
2023-04-05T07:51:11.165Z,6.70
2023-04-05T07:53:41.387Z,6.70
2023-04-05T07:56:14.604Z,6.80
2023-04-05T07:58:43.260Z,6.90
2023-04-05T08:01:12.386Z,6.90
2023-04-05T08:03:41.187Z,7.00
2023-04-05T08:06:14.296Z,7.10
2023-04-05T08:08:44.633Z,7.20
2023-04-05T08:11:19.038Z,7.20
2023-04-05T08:13:57.668Z,7.30
2023-04-05T08:16:28.341Z,7.40
2023-04-05T08:18:59.941Z,7.40
2023-04-05T08:21:28.668Z,7.50
2023-04-05T08:24:00.520Z,7.50
2023-04-05T08:26:34.308Z,7.50
2023-04-05T08:29:11.658Z,7.70
2023-04-05T08:31:40.188Z,7.70
2023-04-05T08:34:11.322Z,7.70
2023-04-05T08:36:39.896Z,7.70
2023-04-05T08:39:11.778Z,7.80
2023-04-05T08:41:51.636Z,8.00
2023-04-05T08:44:24.286Z,7.90
2023-04-05T08:47:00.213Z,7.90
2023-04-05T08:49:29.622Z,8.00
2023-04-05T08:52:03.118Z,7.90
2023-04-05T08:54:33.086Z,8.10
2023-04-05T08:57:05.974Z,8.10
2023-04-05T08:59:36.091Z,8.10
2023-04-05T09:02:10.149Z,8.20
2023-04-05T09:04:45.143Z,8.30
2023-04-05T09:07:15.502Z,8.30
2023-04-05T09:09:52.590Z,8.40
2023-04-05T09:12:23.234Z,8.40
2023-04-05T09:14:58.959Z,8.50
2023-04-05T09:17:30.858Z,8.50
2023-04-05T09:20:01.635Z,8.60
2023-04-05T09:22:30.572Z,8.70
2023-04-05T09:25:01.977Z,8.80
2023-04-05T09:27:37.722Z,8.70
2023-04-05T09:30:40.254Z,8.90
2023-04-05T09:33:27.881Z,9.00
2023-04-05T09:35:58.829Z,9.10
2023-04-05T09:38:46.644Z,9.20
2023-04-05T09:41:24.116Z,9.30
2023-04-05T09:43:55.183Z,9.50
2023-04-05T09:46:32.883Z,9.60
2023-04-05T09:49:01.641Z,9.80
2023-04-05T09:51:37.707Z,9.90
2023-04-05T09:54:07.772Z,10.00
2023-04-05T09:56:39.158Z,9.90
2023-04-05T09:59:12.120Z,10.00
2023-04-05T10:01:44.495Z,10.10
2023-04-05T10:04:12.963Z,10.10
2023-04-05T10:06:43.108Z,10.40
2023-04-05T10:09:12.448Z,10.50
2023-04-05T10:11:47.802Z,10.60
2023-04-05T10:14:16.698Z,10.70
2023-04-05T10:16:52.726Z,10.70
2023-04-05T10:19:28.093Z,10.80
2023-04-05T10:22:02.406Z,11.00
2023-04-05T10:24:37.924Z,11.10
2023-04-05T10:27:15.562Z,11.30
2023-04-05T10:29:52.275Z,11.40
2023-04-05T10:32:31.556Z,11.50
2023-04-05T10:35:09.277Z,11.50
2023-04-05T10:37:44.581Z,11.70
2023-04-05T10:40:17.114Z,12.10
2023-04-05T10:42:48.969Z,12.00
2023-04-05T10:45:22.598Z,12.10
2023-04-05T10:47:56.726Z,12.30
2023-04-05T10:50:32.669Z,12.30
2023-04-05T10:53:01.975Z,12.50
2023-04-05T10:55:32.802Z,12.50
2023-04-05T10:58:03.644Z,12.70
2023-04-05T11:00:34.505Z,12.70
2023-04-05T11:03:03.114Z,12.70
2023-04-05T11:05:34.290Z,12.90
2023-04-05T11:08:29.092Z,13.00
2023-04-05T11:10:56.669Z,12.90
2023-04-05T11:13:50.029Z,12.90
2023-04-05T11:16:22.915Z,13.00
2023-04-05T11:18:52.436Z,13.20
2023-04-05T11:21:38.577Z,13.20
2023-04-05T11:24:09.625Z,13.40
2023-04-05T11:27:10.709Z,13.60
2023-04-05T11:29:52.489Z,13.60
2023-04-05T11:32:21.981Z,13.90
2023-04-05T11:35:06.716Z,14.00
2023-04-05T11:38:09.705Z,14.00
2023-04-05T11:40:43.681Z,14.20
2023-04-05T11:43:13.259Z,14.30
2023-04-05T11:45:43.609Z,14.30
2023-04-05T11:48:13.719Z,14.50
2023-04-05T11:50:43.092Z,14.40
2023-04-05T11:53:12.994Z,14.50
2023-04-05T11:55:43.271Z,14.30
2023-04-05T11:58:16.503Z,14.10
2023-04-05T12:01:00.570Z,14.00
2023-04-05T12:03:30.299Z,13.90
2023-04-05T12:06:03.166Z,14.00
2023-04-05T12:08:42.420Z,14.10
2023-04-05T12:11:14.759Z,14.00
2023-04-05T12:13:43.005Z,14.10
2023-04-05T12:16:12.767Z,14.30
2023-04-05T12:18:41.221Z,14.40
2023-04-05T12:21:18.351Z,14.40
2023-04-05T12:23:46.835Z,14.40
2023-04-05T12:26:15.771Z,14.20
2023-04-05T12:28:54.677Z,14.00
2023-04-05T12:31:41.204Z,14.20
2023-04-05T12:34:10.370Z,14.30
2023-04-05T12:36:48.904Z,14.30
2023-04-05T12:39:18.545Z,14.50
2023-04-05T12:41:57.225Z,14.50
2023-04-05T12:44:31.677Z,14.60
2023-04-05T12:47:12.249Z,14.60
2023-04-05T12:49:40.389Z,14.50
2023-04-05T12:52:08.981Z,14.20
2023-04-05T12:54:37.344Z,14.00
2023-04-05T12:57:09.097Z,13.80
2023-04-05T12:59:37.608Z,14.00
2023-04-05T13:02:07.923Z,14.20
2023-04-05T13:04:36.353Z,14.40
2023-04-05T13:07:05.131Z,14.60
2023-04-05T13:09:35.635Z,14.50
2023-04-05T13:12:05.810Z,14.50
2023-04-05T13:14:34.226Z,14.40
2023-04-05T13:17:05.366Z,14.50
2023-04-05T13:19:35.282Z,14.70
2023-04-05T13:22:05.814Z,14.70
2023-04-05T13:24:36.468Z,14.80
2023-04-05T13:27:06.193Z,14.70
2023-04-05T13:29:36.727Z,14.70
2023-04-05T13:32:05.196Z,14.70
2023-04-05T13:34:35.102Z,14.80
2023-04-05T13:37:06.738Z,14.90
2023-04-05T13:39:37.724Z,15.00
2023-04-05T13:42:06.422Z,15.00
2023-04-05T13:44:34.783Z,15.00
2023-04-05T13:47:03.473Z,15.00
2023-04-05T13:49:31.911Z,15.00
2023-04-05T13:52:04.880Z,15.00
2023-04-05T13:54:33.510Z,15.10
2023-04-05T13:57:01.970Z,15.20
2023-04-05T13:59:30.628Z,15.10
2023-04-05T14:01:59.273Z,14.80
2023-04-05T14:04:31.233Z,14.80
2023-04-05T14:07:11.263Z,14.70
2023-04-05T14:09:39.817Z,14.80
2023-04-05T14:12:23.175Z,14.70
2023-04-05T14:14:52.667Z,14.70
2023-04-05T14:17:22.324Z,14.80
2023-04-05T14:19:50.918Z,14.80
2023-04-05T14:22:21.846Z,14.80
2023-04-05T14:24:50.162Z,14.90
2023-04-05T14:27:20.347Z,14.90
2023-04-05T14:29:48.756Z,15.00
2023-04-05T14:32:17.818Z,15.20
2023-04-05T14:34:45.991Z,15.20
2023-04-05T14:37:14.588Z,15.20
2023-04-05T14:39:47.285Z,15.10
2023-04-05T14:42:15.764Z,15.00
2023-04-05T14:44:44.101Z,14.90
2023-04-05T14:47:12.435Z,14.70
2023-04-05T14:49:40.630Z,14.70
2023-04-05T14:52:09.298Z,14.70
2023-04-05T14:54:37.832Z,14.70
2023-04-05T14:57:09.935Z,14.70
2023-04-05T14:59:41.345Z,14.80
2023-04-05T15:02:34.943Z,15.00
2023-04-05T15:05:03.708Z,15.20
2023-04-05T15:07:38.164Z,15.00
2023-04-05T15:10:07.424Z,14.80
2023-04-05T15:12:38.871Z,14.60
2023-04-05T15:15:08.582Z,14.70
2023-04-05T15:17:36.906Z,14.80
2023-04-05T15:20:05.762Z,15.00
2023-04-05T15:22:41.746Z,15.10
2023-04-05T15:25:13.455Z,15.00
2023-04-05T15:27:43.551Z,15.20
2023-04-05T15:30:12.804Z,15.30
2023-04-05T15:32:40.947Z,15.30
2023-04-05T15:35:09.913Z,15.20
2023-04-05T15:37:39.357Z,15.20
2023-04-05T15:40:09.175Z,15.20
2023-04-05T15:42:37.456Z,15.20
2023-04-05T15:45:11.738Z,15.40
2023-04-05T15:47:43.300Z,15.70
2023-04-05T15:50:11.554Z,15.90
2023-04-05T15:52:39.919Z,16.00
2023-04-05T15:55:08.636Z,16.10
2023-04-05T15:57:36.836Z,16.10
2023-04-05T16:00:08.831Z,15.90
2023-04-05T16:02:39.980Z,15.80
2023-04-05T16:05:08.516Z,15.70
2023-04-05T16:07:36.876Z,15.50
2023-04-05T16:10:07.163Z,15.40
2023-04-05T16:12:38.316Z,15.20
2023-04-05T16:15:09.267Z,15.00
2023-04-05T16:17:37.590Z,14.80
2023-04-05T16:20:06.809Z,14.60
2023-04-05T16:22:35.494Z,14.50
2023-04-05T16:25:10.031Z,14.50
2023-04-05T16:27:43.419Z,14.50
2023-04-05T16:30:14.230Z,14.40
2023-04-05T16:32:42.734Z,14.20
2023-04-05T16:35:11.581Z,14.10
2023-04-05T16:37:43.200Z,14.20
2023-04-05T16:40:12.781Z,14.20
2023-04-05T16:42:41.802Z,14.30
2023-04-05T16:45:13.416Z,14.20
2023-04-05T16:47:42.241Z,14.30
2023-04-05T16:50:10.900Z,14.20
2023-04-05T16:52:39.241Z,14.20
2023-04-05T16:55:08.586Z,14.10
2023-04-05T16:57:37.115Z,14.20
2023-04-05T17:00:09.331Z,14.10
2023-04-05T17:02:42.016Z,14.00
2023-04-05T17:05:12.330Z,14.00
2023-04-05T17:07:43.960Z,13.80
2023-04-05T17:10:12.754Z,13.80
2023-04-05T17:12:42.298Z,13.70
2023-04-05T17:15:13.575Z,13.50
2023-04-05T17:17:43.723Z,13.40
2023-04-05T17:20:20.082Z,13.30
2023-04-05T17:22:50.240Z,13.30
2023-04-05T17:25:18.770Z,13.10
2023-04-05T17:27:49.370Z,13.00
2023-04-05T17:30:18.384Z,13.00
2023-04-05T17:32:51.295Z,13.00
2023-04-05T17:35:21.913Z,12.90
2023-04-05T17:37:50.259Z,12.80
2023-04-05T17:40:18.881Z,12.70
2023-04-05T17:42:47.428Z,12.50
2023-04-05T17:45:16.127Z,12.50
2023-04-05T17:47:47.424Z,12.40
2023-04-05T17:50:17.568Z,12.20
2023-04-05T17:52:46.440Z,12.00
2023-04-05T17:55:15.003Z,11.90
2023-04-05T17:57:43.600Z,11.80
2023-04-05T18:00:18.188Z,11.70
2023-04-05T18:02:47.194Z,11.70
2023-04-05T18:05:17.664Z,11.70
2023-04-05T18:07:46.369Z,11.60
2023-04-05T18:10:20.583Z,11.50
2023-04-05T18:12:48.888Z,11.40
2023-04-05T18:15:18.556Z,11.40
2023-04-05T18:17:47.376Z,11.20
2023-04-05T18:20:17.559Z,11.20
2023-04-05T18:22:47.365Z,11.10
2023-04-05T18:25:20.313Z,11.20
2023-04-05T18:27:57.788Z,11.20
2023-04-05T18:30:26.946Z,11.20
2023-04-05T18:32:59.976Z,11.00
2023-04-05T18:35:30.059Z,11.00
2023-04-05T18:37:59.211Z,10.90
2023-04-05T18:40:27.505Z,10.90
2023-04-05T18:42:58.804Z,10.80
2023-04-05T18:45:27.351Z,10.80
2023-04-05T18:47:56.211Z,10.60
2023-04-05T18:50:24.556Z,10.60
2023-04-05T18:52:55.282Z,10.60
2023-04-05T18:55:23.727Z,10.60
2023-04-05T18:57:57.049Z,10.50
2023-04-05T19:00:25.447Z,10.40
2023-04-05T19:02:53.812Z,10.50
2023-04-05T19:05:29.944Z,10.50
2023-04-05T19:07:59.644Z,10.50
2023-04-05T19:10:27.850Z,10.50
2023-04-05T19:12:56.721Z,10.40
2023-04-05T19:15:28.415Z,10.40
2023-04-05T19:18:01.151Z,10.40
2023-04-05T19:20:31.814Z,10.40
2023-04-05T19:23:02.442Z,10.40
2023-04-05T19:25:30.740Z,10.30
2023-04-05T19:27:59.261Z,10.30
2023-04-05T19:30:32.804Z,10.20
2023-04-05T19:33:01.309Z,10.30
2023-04-05T19:35:31.896Z,10.20
2023-04-05T19:38:04.563Z,10.10
2023-04-05T19:40:33.172Z,10.10
2023-04-05T19:43:02.258Z,10.00
2023-04-05T19:45:31.932Z,10.00
2023-04-05T19:48:02.531Z,9.90
2023-04-05T19:50:48.554Z,9.80
2023-04-05T19:53:41.318Z,9.90
2023-04-05T19:56:12.638Z,9.80
2023-04-05T19:58:40.964Z,9.70
2023-04-05T20:01:09.833Z,9.80
2023-04-05T20:03:39.770Z,9.70
2023-04-05T20:06:10.312Z,9.60
2023-04-05T20:08:41.665Z,9.60
2023-04-05T20:11:12.431Z,9.60
2023-04-05T20:13:45.118Z,9.60
2023-04-05T20:16:18.739Z,9.60
2023-04-05T20:18:50.656Z,9.60
2023-04-05T20:21:20.301Z,9.50
2023-04-05T20:23:52.977Z,9.60
2023-04-05T20:26:27.721Z,9.50
2023-04-05T20:29:00.131Z,9.40
2023-04-05T20:31:30.896Z,9.40
2023-04-05T20:34:10.148Z,9.40
2023-04-05T20:36:39.930Z,9.30
2023-04-05T20:39:13.144Z,9.30
2023-04-05T20:41:42.379Z,9.30
2023-04-05T20:44:10.838Z,9.20
2023-04-05T20:46:39.153Z,9.20
2023-04-05T20:49:07.819Z,9.20
2023-04-05T20:51:36.557Z,9.20
2023-04-05T20:54:04.995Z,9.20
2023-04-05T20:56:34.608Z,9.10
2023-04-05T20:59:02.898Z,9.10
2023-04-05T21:01:31.289Z,9.10
2023-04-05T21:03:59.801Z,9.10
2023-04-05T21:06:27.848Z,9.10
2023-04-05T21:08:56.311Z,9.10
2023-04-05T21:11:24.490Z,9.10
2023-04-05T21:13:54.325Z,9.00
2023-04-05T21:16:22.524Z,9.00
2023-04-05T21:18:51.057Z,8.90
2023-04-05T21:21:19.218Z,9.00
2023-04-05T21:23:47.992Z,8.80
2023-04-05T21:26:16.221Z,8.80
2023-04-05T21:28:44.207Z,8.80
2023-04-05T21:31:13.739Z,8.80
2023-04-05T21:33:41.795Z,8.80
2023-04-05T21:36:09.950Z,8.80
2023-04-05T21:38:38.254Z,8.80
2023-04-05T21:41:06.418Z,8.70
2023-04-05T21:43:34.384Z,8.70
2023-04-05T21:46:02.513Z,8.70
2023-04-05T21:48:31.901Z,8.70
2023-04-05T21:51:00.243Z,8.70
2023-04-05T21:53:28.720Z,8.70
2023-04-05T21:55:56.914Z,8.80
2023-04-05T21:58:26.573Z,8.70
2023-04-05T22:00:55.003Z,8.70
2023-04-05T22:03:23.169Z,8.70
2023-04-05T22:05:52.677Z,8.70
2023-04-05T22:08:20.822Z,8.60
2023-04-05T22:10:49.121Z,8.60
2023-04-05T22:13:17.139Z,8.60
2023-04-05T22:15:45.939Z,8.60
2023-04-05T22:18:17.807Z,8.60
2023-04-05T22:20:46.005Z,8.60
2023-04-05T22:23:15.457Z,8.70
2023-04-05T22:25:43.528Z,8.60
2023-04-05T22:28:11.541Z,8.50
2023-04-05T22:30:44.097Z,8.50
2023-04-05T22:33:13.769Z,8.60
2023-04-05T22:35:42.951Z,8.40
2023-04-05T22:38:11.027Z,8.50
2023-04-05T22:40:40.609Z,8.40
2023-04-05T22:43:09.656Z,8.40
2023-04-05T22:45:37.811Z,8.40
2023-04-05T22:48:06.984Z,8.30
2023-04-05T22:50:35.295Z,8.40
2023-04-05T22:53:03.371Z,8.40
2023-04-05T22:55:31.380Z,8.40
2023-04-05T22:58:01.083Z,8.30
2023-04-05T23:00:29.064Z,8.30
2023-04-05T23:02:57.227Z,8.50
2023-04-05T23:05:25.372Z,8.40
2023-04-05T23:07:53.585Z,8.40
2023-04-05T23:10:21.788Z,8.40
2023-04-05T23:12:49.973Z,8.50
2023-04-05T23:15:19.728Z,8.40
2023-04-05T23:17:49.185Z,8.40
2023-04-05T23:20:17.552Z,8.40
2023-04-05T23:22:45.629Z,8.40
2023-04-05T23:25:14.412Z,8.40
2023-04-05T23:27:44.392Z,8.40
2023-04-05T23:30:13.286Z,8.40
2023-04-05T23:32:42.627Z,8.40
2023-04-05T23:35:11.096Z,8.30
2023-04-05T23:37:39.151Z,8.30
2023-04-05T23:40:08.872Z,8.30
2023-04-05T23:42:37.010Z,8.30
2023-04-05T23:45:08.989Z,8.30
2023-04-05T23:47:38.335Z,8.30
2023-04-05T23:50:09.799Z,8.20
2023-04-05T23:52:37.983Z,8.20
2023-04-05T23:55:06.706Z,8.20
2023-04-05T23:57:34.848Z,8.20
